Time;durP1;ratioP1;P1;durP2;ratioP2;P2;SDS_P1;SDS_P2;PMS_P1;PMS_P2;Temp;Humidity;BMP_temperature;BMP_pressure;BME280_temperature;BME280_humidity;BME280_pressure;Samples;Min_cycle;Max_cycle;Signal;HPM_P1;HPM_P2
2022/08/30 00:03:03;;;;;;;;;;;;;;;;;;5039296;28;19966;-82
2022/08/30 00:05:28;;;;;;;;;;;;;;;;;;5046031;28;19908;-82
2022/08/30 00:07:53;;;;;;;;;;;;;;;;;;5050538;28;19909;-85
2022/08/30 00:10:18;;;;;;;;;;;;;;;;;;5048966;28;19909;-84
2022/08/30 00:12:43;;;;;;;;;;;;;;;;;;5051735;28;19916;-79
2022/08/30 00:15:08;;;;;;;;;;;;;;;;;;5041339;28;19909;-78
2022/08/30 00:17:34;;;;;;;;;;;;;;;;;;5041891;28;19928;-81
2022/08/30 00:19:59;;;;;;;;;;;;;;;;;;5041039;28;19960;-81
2022/08/30 00:22:24;;;;;;;;;;;;;;;;;;5043044;28;19948;-85
2022/08/30 00:24:49;;;;;;;;;;;;;;;;;;5042905;28;19916;-85
2022/08/30 00:27:14;;;;;;;;;;;;;;;;;;5040085;28;19916;-80
2022/08/30 00:29:39;;;;;;;;;;;;;;;;;;5048890;28;19909;-82
2022/08/30 00:32:05;;;;;;;;;;;;;;;;;;5036794;28;20416;-83
2022/08/30 00:34:31;;;;;;;;;;;;;;;;;;5047189;28;19916;-77
2022/08/30 00:36:56;;;;;;;;;;;;;;;;;;5049537;28;19991;-77
2022/08/30 00:39:21;;;;;;;;;;;;;;;;;;5050065;28;19952;-77
2022/08/30 00:41:47;;;;;;;;;;;;;;;;;;5048595;28;19971;-78
2022/08/30 00:44:12;;;;;;;;;;;;;;;;;;5045611;28;20318;-77
2022/08/30 00:46:37;;;;;;;;;;;;;;;;;;5036572;28;19912;-77
2022/08/30 00:49:02;;;;;;;;;;;;;;;;;;5041526;28;19908;-77
2022/08/30 00:51:28;;;;;;;;;;;;;;;;;;5043293;28;19963;-78
2022/08/30 00:53:53;;;;;;;;;;;;;;;;;;5047196;28;19916;-78
2022/08/30 00:56:18;;;;;;;;;;;;;;;;;;5039334;28;19925;-78
2022/08/30 00:58:44;;;;;;;;;;;;;;;;;;5050637;28;20360;-82
2022/08/30 01:01:09;;;;;;;;;;;;;;;;;;5042457;28;19955;-79
2022/08/30 01:03:34;;;;;;;;;;;;;;;;;;5047475;28;20379;-80
2022/08/30 01:05:59;;;;;;;;;;;;;;;;;;5050260;28;19962;-80
2022/08/30 01:08:24;;;;;;;;;;;;;;;;;;5049685;28;19909;-84
2022/08/30 01:10:49;;;;;;;;;;;;;;;;;;5049406;28;19944;-83
2022/08/30 01:13:15;;;;;;;;;;;;;;;;;;5044813;28;19954;-82
2022/08/30 01:15:40;;;;;;;;;;;;;;;;;;5051208;28;19912;-84
2022/08/30 01:18:05;;;;;;;;;;;;;;;;;;5043727;28;19991;-78
2022/08/30 01:20:30;;;;;;;;;;;;;;;;;;5035870;28;19917;-78
2022/08/30 01:22:55;;;;;;;;;;;;;;;;;;5041061;28;20007;-84
2022/08/30 01:25:20;;;;;;;;;;;;;;;;;;5039679;28;19909;-80
2022/08/30 01:27:45;;;;;;;;;;;;;;;;;;5041587;28;19920;-84
2022/08/30 01:30:11;;;;;;;;;;;;;;;;;;5047406;28;19909;-85
2022/08/30 01:32:36;;;;;;;;;;;;;;;;;;5041052;28;19916;-85
2022/08/30 01:35:01;;;;;;;;;;;;;;;;;;5034445;28;19905;-80
2022/08/30 01:37:26;;;;;;;;;;;;;;;;;;5048050;28;19948;-79
2022/08/30 01:39:51;;;;;;;;;;;;;;;;;;5040110;28;19917;-85
2022/08/30 01:42:17;;;;;;;;;;;;;;;;;;5043553;28;19919;-86
2022/08/30 01:44:42;;;;;;;;;;;;;;;;;;5036915;28;19909;-85
2022/08/30 01:47:07;;;;;;;;;;;;;;;;;;5050652;28;19915;-85
2022/08/30 01:49:32;;;;;;;;;;;;;;;;;;5036069;28;19916;-80
2022/08/30 01:51:57;;;;;;;;;;;;;;;;;;5047540;28;19912;-81
2022/08/30 01:54:22;;;;;;;;;;;;;;;;;;5038360;28;19914;-86
2022/08/30 01:56:47;;;;;;;;;;;;;;;;;;5051381;28;20359;-84
2022/08/30 01:59:13;;;;;;;;;;;;;;;;;;5036471;28;19917;-86
2022/08/30 02:01:38;;;;;;;;;;;;;;;;;;5050142;28;19912;-79
2022/08/30 02:04:03;;;;;;;;;;;;;;;;;;5040338;28;19909;-80
2022/08/30 02:06:29;;;;;;;;;;;;;;;;;;5050659;28;19916;-79
2022/08/30 02:08:54;;;;;;;;;;;;;;;;;;5042326;28;19909;-79
2022/08/30 02:11:19;;;;;;;;;;;;;;;;;;5044618;28;19909;-82
2022/08/30 02:13:45;;;;;;;;;;;;;;;;;;5035175;28;19972;-80
2022/08/30 02:16:10;;;;;;;;;;;;;;;;;;5046123;28;20007;-82
2022/08/30 02:18:35;;;;;;;;;;;;;;;;;;5046453;28;20299;-83
2022/08/30 02:21:00;;;;;;;;;;;;;;;;;;5042844;28;19905;-82
2022/08/30 02:23:25;;;;;;;;;;;;;;;;;;5044061;28;19917;-84
2022/08/30 02:25:50;;;;;;;;;;;;;;;;;;5050873;28;19904;-87
2022/08/30 02:28:18;;;;;;;;;;;;;;;;;;5040850;28;20418;-85
2022/08/30 02:30:43;;;;;;;;;;;;;;;;;;5039133;28;20379;-85
2022/08/30 02:33:08;;;;;;;;;;;;;;;;;;5048090;28;20390;-85
2022/08/30 02:35:33;;;;;;;;;;;;;;;;;;5046184;28;19909;-86
2022/08/30 02:37:59;;;;;;;;;;;;;;;;;;5042277;28;19916;-79
2022/08/30 02:40:24;;;;;;;;;;;;;;;;;;5042086;28;19920;-79
2022/08/30 02:42:49;;;;;;;;;;;;;;;;;;5040679;28;19916;-79
2022/08/30 02:45:14;;;;;;;;;;;;;;;;;;5042768;28;19908;-79
2022/08/30 02:47:39;;;;;;;;;;;;;;;;;;5049485;28;19909;-79
2022/08/30 02:50:04;;;;;;;;;;;;;;;;;;5044424;28;19904;-79
2022/08/30 02:52:29;;;;;;;;;;;;;;;;;;5051236;28;19955;-87
2022/08/30 02:54:55;;;;;;;;;;;;;;;;;;5045382;28;19999;-87
2022/08/30 02:57:20;;;;;;;;;;;;;;;;;;5042455;28;19909;-86
2022/08/30 02:59:46;;;;;;;;;;;;;;;;;;5049950;28;19917;-85
2022/08/30 03:02:11;;;;;;;;;;;;;;;;;;5052548;28;19951;-86
2022/08/30 03:04:38;;;;;;;;;;;;;;;;;;5038596;28;19913;-86
2022/08/30 03:07:03;;;;;;;;;;;;;;;;;;5042280;28;19909;-86
2022/08/30 03:09:28;;;;;;;;;;;;;;;;;;5038202;28;19917;-82
2022/08/30 03:11:53;;;;;;;;;;;;;;;;;;5048287;28;19977;-86
2022/08/30 03:14:18;;;;;;;;;;;;;;;;;;5040588;28;19909;-86
2022/08/30 03:16:43;;;;;;;;;;;;;;;;;;5038057;28;20356;-79
2022/08/30 03:19:09;;;;;;;;;;;;;;;;;;5039198;28;19917;-81
2022/08/30 03:21:34;;;;;;;;;;;;;;;;;;5043731;28;20328;-86
2022/08/30 03:23:59;;;;;;;;;;;;;;;;;;5050634;28;19928;-78
2022/08/30 03:26:24;;;;;;;;;;;;;;;;;;5055287;28;19905;-81
2022/08/30 03:28:49;;;;;;;;;;;;;;;;;;5054665;28;19912;-79
2022/08/30 03:31:14;;;;;;;;;;;;;;;;;;5039884;28;19955;-80
2022/08/30 03:33:40;;;;;;;;;;;;;;;;;;5040703;28;19909;-81
2022/08/30 03:36:05;;;;;;;;;;;;;;;;;;5049259;28;19996;-87
2022/08/30 03:38:30;;;;;;;;;;;;;;;;;;5042223;28;19909;-86
2022/08/30 03:40:55;;;;;;;;;;;;;;;;;;5050766;28;19909;-85
2022/08/30 03:43:20;;;;;;;;;;;;;;;;;;5044034;28;19962;-87
2022/08/30 03:45:45;;;;;;;;;;;;;;;;;;5042185;28;19909;-85
2022/08/30 03:48:11;;;;;;;;;;;;;;;;;;5049998;28;19909;-79
2022/08/30 03:50:36;;;;;;;;;;;;;;;;;;5046078;28;19909;-79
2022/08/30 03:53:01;;;;;;;;;;;;;;;;;;5039133;28;20311;-77
2022/08/30 03:55:27;;;;;;;;;;;;;;;;;;5041458;28;19927;-78
2022/08/30 03:57:52;;;;;;;;;;;;;;;;;;5050565;28;20335;-78
2022/08/30 04:00:17;;;;;;;;;;;;;;;;;;5043262;28;19955;-79
2022/08/30 04:02:42;;;;;;;;;;;;;;;;;;5053159;28;19909;-79
2022/08/30 04:05:07;;;;;;;;;;;;;;;;;;5053903;28;20307;-79
2022/08/30 04:07:32;;;;;;;;;;;;;;;;;;5052417;28;19916;-81
2022/08/30 04:09:58;;;;;;;;;;;;;;;;;;5055390;28;19944;-84
2022/08/30 04:12:23;;;;;;;;;;;;;;;;;;5043991;28;19909;-85
2022/08/30 04:14:48;;;;;;;;;;;;;;;;;;5045132;28;19913;-86
2022/08/30 04:17:13;;;;;;;;;;;;;;;;;;5045355;28;19949;-77
2022/08/30 04:19:38;;;;;;;;;;;;;;;;;;5052254;28;19917;-78
2022/08/30 04:22:04;;;;;;;;;;;;;;;;;;5050977;28;20360;-78
2022/08/30 04:24:30;;;;;;;;;;;;;;;;;;5048931;28;19962;-86
2022/08/30 04:26:55;;;;;;;;;;;;;;;;;;5053135;28;19934;-86
2022/08/30 04:29:20;;;;;;;;;;;;;;;;;;5049634;28;19912;-86
2022/08/30 04:31:45;;;;;;;;;;;;;;;;;;5045077;28;19915;-80
2022/08/30 04:34:10;;;;;;;;;;;;;;;;;;5040520;28;19924;-86
2022/08/30 04:36:35;;;;;;;;;;;;;;;;;;5045095;28;19916;-86
2022/08/30 04:39:00;;;;;;;;;;;;;;;;;;5041333;28;19979;-87
2022/08/30 04:41:26;;;;;;;;;;;;;;;;;;5046897;28;19913;-86
2022/08/30 04:43:51;;;;;;;;;;;;;;;;;;5037196;28;19913;-82
2022/08/30 04:46:17;;;;;;;;;;;;;;;;;;5037605;28;19916;-87
2022/08/30 04:48:42;;;;;;;;;;;;;;;;;;5045753;28;19948;-86
2022/08/30 04:51:07;;;;;;;;;;;;;;;;;;5044638;28;20409;-86
2022/08/30 04:53:32;;;;;;;;;;;;;;;;;;5043679;28;19955;-86
2022/08/30 04:55:57;;;;;;;;;;;;;;;;;;5038196;28;20003;-87
2022/08/30 04:58:22;;;;;;;;;;;;;;;;;;5041805;28;19913;-86
2022/08/30 05:00:47;;;;;;;;;;;;;;;;;;5038625;28;19917;-86
2022/08/30 05:03:13;;;;;;;;;;;;;;;;;;5040437;28;19916;-86
2022/08/30 05:05:38;;;;;;;;;;;;;;;;;;5037672;28;19913;-85
2022/08/30 05:08:03;;;;;;;;;;;;;;;;;;5041509;28;19916;-86
2022/08/30 05:10:28;;;;;;;;;;;;;;;;;;5040661;28;20272;-82
2022/08/30 05:12:54;;;;;;;;;;;;;;;;;;5040508;28;19915;-77
2022/08/30 05:15:19;;;;;;;;;;;;;;;;;;5043912;28;19985;-77
2022/08/30 05:17:44;;;;;;;;;;;;;;;;;;5046450;28;19909;-77
2022/08/30 05:20:10;;;;;;;;;;;;;;;;;;5053324;28;19916;-78
2022/08/30 05:22:35;;;;;;;;;;;;;;;;;;5044099;28;20024;-78
2022/08/30 05:25:00;;;;;;;;;;;;;;;;;;5041992;28;20336;-78
2022/08/30 05:27:25;;;;;;;;;;;;;;;;;;5048357;28;19912;-78
2022/08/30 05:29:50;;;;;;;;;;;;;;;;;;5048748;28;20368;-78
2022/08/30 05:32:16;;;;;;;;;;;;;;;;;;5037506;28;19952;-78
2022/08/30 05:34:41;;;;;;;;;;;;;;;;;;5035289;28;20360;-79
2022/08/30 05:37:07;;;;;;;;;;;;;;;;;;5041743;28;20383;-78
2022/08/30 05:39:32;;;;;;;;;;;;;;;;;;5049200;28;20348;-79
2022/08/30 05:41:57;;;;;;;;;;;;;;;;;;5038850;28;19962;-78
2022/08/30 05:44:22;;;;;;;;;;;;;;;;;;5038881;28;20004;-79
2022/08/30 05:46:48;;;;;;;;;;;;;;;;;;5036814;28;19980;-79
2022/08/30 05:49:13;;;;;;;;;;;;;;;;;;5043632;28;19912;-79
2022/08/30 05:51:38;;;;;;;;;;;;;;;;;;5051752;28;19920;-79
2022/08/30 05:54:04;;;;;;;;;;;;;;;;;;5035375;28;20383;-80
2022/08/30 05:56:30;;;;;;;;;;;;;;;;;;5048475;28;19915;-80
2022/08/30 05:58:55;;;;;;;;;;;;;;;;;;5038518;28;19913;-79
2022/08/30 06:01:20;;;;;;;;;;;;;;;;;;5042546;28;19999;-80
2022/08/30 06:03:45;;;;;;;;;;;;;;;;;;5044566;28;19909;-79
2022/08/30 06:06:10;;;;;;;;;;;;;;;;;;5034704;28;20386;-80
2022/08/30 06:08:35;;;;;;;;;;;;;;;;;;5038309;28;19916;-79
2022/08/30 06:11:00;;;;;;;;;;;;;;;;;;5043925;28;19911;-80
2022/08/30 06:13:26;;;;;;;;;;;;;;;;;;5042590;28;19916;-80
2022/08/30 06:15:51;;;;;;;;;;;;;;;;;;5041648;28;20404;-80
2022/08/30 06:18:16;;;;;;;;;;;;;;;;;;5036469;28;19908;-80
2022/08/30 06:20:41;;;;;;;;;;;;;;;;;;5038653;28;20271;-80
2022/08/30 06:23:06;;;;;;;;;;;;;;;;;;5043012;28;19909;-80
2022/08/30 06:25:32;;;;;;;;;;;;;;;;;;5046748;28;19912;-82
2022/08/30 06:27:57;;;;;;;;;;;;;;;;;;5047397;28;19971;-83
2022/08/30 06:30:22;;;;;;;;;;;;;;;;;;5049693;28;19995;-85
2022/08/30 06:32:47;;;;;;;;;;;;;;;;;;5044133;28;20467;-78
2022/08/30 06:35:12;;;;;;;;;;;;;;;;;;5044932;28;19927;-79
2022/08/30 06:37:37;;;;;;;;;;;;;;;;;;5047272;28;20354;-79
2022/08/30 06:40:03;;;;;;;;;;;;;;;;;;5046014;28;19959;-78
2022/08/30 06:42:30;;;;;;;;;;;;;;;;;;5050351;28;19905;-79
2022/08/30 06:44:55;;;;;;;;;;;;;;;;;;5041279;28;20379;-80
2022/08/30 06:47:20;;;;;;;;;;;;;;;;;;5046565;28;20340;-81
2022/08/30 06:49:46;;;;;;;;;;;;;;;;;;5040141;28;20011;-82
2022/08/30 06:52:11;;;;;;;;;;;;;;;;;;5040117;28;19916;-83
2022/08/30 06:54:36;;;;;;;;;;;;;;;;;;5039338;28;19916;-84
2022/08/30 06:57:01;;;;;;;;;;;;;;;;;;5043250;28;19916;-78
2022/08/30 06:59:26;;;;;;;;;;;;;;;;;;5042311;28;19917;-78
2022/08/30 07:01:51;;;;;;;;;;;;;;;;;;5044649;28;19909;-80
2022/08/30 07:04:17;;;;;;;;;;;;;;;;;;5049176;28;20387;-80
2022/08/30 07:06:42;;;;;;;;;;;;;;;;;;5047738;28;20345;-79
2022/08/30 07:09:07;;;;;;;;;;;;;;;;;;5045709;28;19987;-80
2022/08/30 07:11:32;;;;;;;;;;;;;;;;;;5052638;28;19908;-85
2022/08/30 07:13:57;;;;;;;;;;;;;;;;;;5035471;28;19908;-85
2022/08/30 07:16:22;;;;;;;;;;;;;;;;;;5035399;28;20028;-78
2022/08/30 07:18:50;;;;;;;;;;;;;;;;;;5042314;28;20344;-77
2022/08/30 07:21:15;;;;;;;;;;;;;;;;;;5042105;28;19916;-78
2022/08/30 07:23:40;;;;;;;;;;;;;;;;;;5036992;28;19996;-77
2022/08/30 07:26:06;;;;;;;;;;;;;;;;;;5045777;28;19912;-78
2022/08/30 07:28:31;;;;;;;;;;;;;;;;;;5043733;28;19967;-79
2022/08/30 07:30:56;;;;;;;;;;;;;;;;;;5049196;28;19999;-79
2022/08/30 07:33:21;;;;;;;;;;;;;;;;;;5041234;28;19905;-79
2022/08/30 07:35:46;;;;;;;;;;;;;;;;;;5047025;28;20554;-80
2022/08/30 07:38:11;;;;;;;;;;;;;;;;;;5048501;28;19912;-79
2022/08/30 07:40:36;;;;;;;;;;;;;;;;;;5048965;28;19913;-80
2022/08/30 07:43:02;;;;;;;;;;;;;;;;;;5054272;28;20007;-79
2022/08/30 07:45:27;;;;;;;;;;;;;;;;;;5041120;28;20269;-80
2022/08/30 07:47:52;;;;;;;;;;;;;;;;;;5052188;28;20042;-83
2022/08/30 07:50:17;;;;;;;;;;;;;;;;;;5040943;28;19909;-84
2022/08/30 07:52:43;;;;;;;;;;;;;;;;;;5054349;28;20348;-84
2022/08/30 07:55:08;;;;;;;;;;;;;;;;;;5050564;28;19908;-80
2022/08/30 07:57:34;;;;;;;;;;;;;;;;;;5042689;28;19982;-81
2022/08/30 07:59:59;;;;;;;;;;;;;;;;;;5049694;28;20337;-82
2022/08/30 08:02:24;;;;;;;;;;;;;;;;;;5037506;28;19951;-84
2022/08/30 08:04:49;;;;;;;;;;;;;;;;;;5044351;28;19970;-83
2022/08/30 08:07:14;;;;;;;;;;;;;;;;;;5044813;28;19968;-84
2022/08/30 08:09:39;;;;;;;;;;;;;;;;;;5041961;28;20382;-82
2022/08/30 08:12:04;;;;;;;;;;;;;;;;;;5040299;28;19909;-83
2022/08/30 08:14:30;;;;;;;;;;;;;;;;;;5040109;28;20283;-84
2022/08/30 08:16:55;;;;;;;;;;;;;;;;;;5042262;28;19958;-84
2022/08/30 08:19:20;;;;;;;;;;;;;;;;;;5041483;28;19923;-86
2022/08/30 08:21:45;;;;;;;;;;;;;;;;;;5038282;28;21569;-83
2022/08/30 08:24:10;;;;;;;;;;;;;;;;;;5046829;28;20382;-82
2022/08/30 08:26:36;;;;;;;;;;;;;;;;;;5046072;28;19909;-84
2022/08/30 08:29:01;;;;;;;;;;;;;;;;;;5049688;28;19909;-84
2022/08/30 08:31:27;;;;;;;;;;;;;;;;;;5043153;28;19995;-84
2022/08/30 08:33:52;;;;;;;;;;;;;;;;;;5036804;28;20249;-83
2022/08/30 08:36:17;;;;;;;;;;;;;;;;;;5042423;28;20291;-83
2022/08/30 08:38:42;;;;;;;;;;;;;;;;;;5046319;28;19959;-83
2022/08/30 08:41:09;;;;;;;;;;;;;;;;;;5042156;28;19909;-83
2022/08/30 08:43:34;;;;;;;;;;;;;;;;;;5043905;28;20348;-83
2022/08/30 08:45:59;;;;;;;;;;;;;;;;;;5042407;28;19944;-85
2022/08/30 08:48:25;;;;;;;;;;;;;;;;;;5038827;28;20368;-83
2022/08/30 08:53:34;;;;;;;;;;;;;;;;;;5043334;28;20008;-83
2022/08/30 08:55:59;;;;;;;;;;;;;;;;;;5048406;28;19940;-80
2022/08/30 08:58:24;;;;;;;;;;;;;;;;;;5020080;28;20348;-79
2022/08/30 09:00:50;;;;;;;;;;;;;;;;;;5040413;28;19912;-79
2022/08/30 09:03:15;;;;;;;;;;;;;;;;;;5050010;28;19970;-79
2022/08/30 09:05:40;;;;;;;;;;;;;;;;;;5042462;28;20440;-79
2022/08/30 09:08:05;;;;;;;;;;;;;;;;;;5037431;28;19917;-78
2022/08/30 09:10:30;;;;;;;;;;;;;;;;;;5039934;28;20380;-78
2022/08/30 09:12:56;;;;;;;;;;;;;;;;;;5049209;28;20041;-78
2022/08/30 09:15:21;;;;;;;;;;;;;;;;;;5048260;28;20272;-79
2022/08/30 09:17:46;;;;;;;;;;;;;;;;;;5030582;28;19984;-81
2022/08/30 09:20:11;;;;;;;;;;;;;;;;;;5041282;28;19924;-81
2022/08/30 09:22:37;;;;;;;;;;;;;;;;;;5039268;28;19955;-81
2022/08/30 09:25:02;;;;;;;;;;;;;;;;;;5043203;28;19917;-80
2022/08/30 09:27:29;;;;;;;;;;;;;;;;;;5044330;28;19909;-81
2022/08/30 09:29:54;;;;;;;;;;;;;;;;;;5044304;28;19965;-81
2022/08/30 09:32:19;;;;;;;;;;;;;;;;;;5037244;28;19959;-80
2022/08/30 09:34:46;;;;;;;;;;;;;;;;;;5026641;28;19912;-80
2022/08/30 09:37:11;;;;;;;;;;;;;;;;;;5029089;28;19909;-80
2022/08/30 09:39:38;;;;;;;;;;;;;;;;;;5037751;28;20518;-84
2022/08/30 09:42:03;;;;;;;;;;;;;;;;;;5037553;28;19909;-81
2022/08/30 09:44:29;;;;;;;;;;;;;;;;;;5046900;28;19999;-83
2022/08/30 09:46:54;;;;;;;;;;;;;;;;;;5038138;28;19916;-83
2022/08/30 09:49:19;;;;;;;;;;;;;;;;;;5036859;28;19952;-82
2022/08/30 09:51:44;;;;;;;;;;;;;;;;;;5032978;28;19916;-82
2022/08/30 09:54:10;;;;;;;;;;;;;;;;;;5039681;28;19909;-80
2022/08/30 09:56:35;;;;;;;;;;;;;;;;;;5037984;28;20298;-80
2022/08/30 09:59:00;;;;;;;;;;;;;;;;;;5035499;28;19909;-80
2022/08/30 10:01:25;;;;;;;;;;;;;;;;;;5043934;28;20316;-80
2022/08/30 10:03:50;;;;;;;;;;;;;;;;;;5041999;28;19955;-80
2022/08/30 10:06:15;;;;;;;;;;;;;;;;;;5040764;28;19909;-79
2022/08/30 10:08:41;;;;;;;;;;;;;;;;;;5049107;28;19909;-79
2022/08/30 10:11:06;;;;;;;;;;;;;;;;;;5048445;28;19936;-80
2022/08/30 10:13:31;;;;;;;;;;;;;;;;;;5040443;28;19921;-79
2022/08/30 10:15:56;;;;;;;;;;;;;;;;;;5041725;28;19909;-79
2022/08/30 10:18:23;;;;;;;;;;;;;;;;;;5041533;28;19919;-80
2022/08/30 10:20:49;;;;;;;;;;;;;;;;;;5036922;28;20003;-79
2022/08/30 10:23:14;;;;;;;;;;;;;;;;;;5041114;28;20379;-80
2022/08/30 10:25:39;;;;;;;;;;;;;;;;;;5038373;28;19909;-80
2022/08/30 10:28:04;;;;;;;;;;;;;;;;;;5043242;28;19909;-80
2022/08/30 10:30:31;;;;;;;;;;;;;;;;;;5045909;28;19940;-80
2022/08/30 10:32:56;;;;;;;;;;;;;;;;;;5038954;28;19909;-80
2022/08/30 10:35:21;;;;;;;;;;;;;;;;;;5045309;28;19931;-80
2022/08/30 10:37:46;;;;;;;;;;;;;;;;;;5046190;28;19909;-81
2022/08/30 10:42:55;;;;;;;;;;;;;;;;;;5044993;28;19962;-80
2022/08/30 10:45:20;;;;;;;;;;;;;;;;;;5035891;28;19913;-81
2022/08/30 10:47:46;;;;;;;;;;;;;;;;;;5042876;28;19905;-81
2022/08/30 10:50:11;;;;;;;;;;;;;;;;;;5039728;28;20268;-80
2022/08/30 10:52:36;;;;;;;;;;;;;;;;;;5044103;28;19916;-81
2022/08/30 10:55:01;;;;;;;;;;;;;;;;;;5047386;28;19905;-81
2022/08/30 10:57:27;;;;;;;;;;;;;;;;;;5046739;28;19916;-81
2022/08/30 10:59:52;;;;;;;;;;;;;;;;;;5051502;28;19924;-81
2022/08/30 11:02:17;;;;;;;;;;;;;;;;;;5041612;28;19913;-80
2022/08/30 11:04:42;;;;;;;;;;;;;;;;;;5048945;28;19909;-81
2022/08/30 11:07:07;;;;;;;;;;;;;;;;;;5050641;28;19908;-81
2022/08/30 11:09:33;;;;;;;;;;;;;;;;;;5045992;28;19912;-81
2022/08/30 11:11:58;;;;;;;;;;;;;;;;;;5048689;28;19956;-80
2022/08/30 11:14:23;;;;;;;;;;;;;;;;;;5047376;28;19917;-80
2022/08/30 11:16:48;;;;;;;;;;;;;;;;;;5046576;28;20004;-81
2022/08/30 11:19:13;;;;;;;;;;;;;;;;;;5047693;28;19917;-80
2022/08/30 11:21:38;;;;;;;;;;;;;;;;;;5054412;28;19909;-81
2022/08/30 11:24:03;;;;;;;;;;;;;;;;;;5054194;28;19916;-81
2022/08/30 11:26:29;;;;;;;;;;;;;;;;;;5054046;28;19931;-80
2022/08/30 11:28:54;;;;;;;;;;;;;;;;;;5041095;28;19916;-80
2022/08/30 11:31:19;;;;;;;;;;;;;;;;;;5046636;28;19905;-81
2022/08/30 11:33:44;;;;;;;;;;;;;;;;;;5043325;28;20315;-81
2022/08/30 11:36:09;;;;;;;;;;;;;;;;;;5047710;28;19916;-81
2022/08/30 11:38:35;;;;;;;;;;;;;;;;;;5046622;28;19905;-81
2022/08/30 11:41:00;;;;;;;;;;;;;;;;;;5047310;28;20280;-81
2022/08/30 11:43:25;;;;;;;;;;;;;;;;;;5049786;28;19909;-81
2022/08/30 11:45:53;;;;;;;;;;;;;;;;;;5049677;28;20339;-81
2022/08/30 11:48:18;;;;;;;;;;;;;;;;;;5050712;28;19909;-80
2022/08/30 11:50:43;;;;;;;;;;;;;;;;;;5048444;28;20417;-81
2022/08/30 11:53:10;;;;;;;;;;;;;;;;;;5040649;28;19916;-80
2022/08/30 11:55:35;;;;;;;;;;;;;;;;;;5044388;28;19916;-81
2022/08/30 11:58:00;;;;;;;;;;;;;;;;;;5052907;28;19908;-81
2022/08/30 12:00:25;;;;;;;;;;;;;;;;;;5053217;28;19944;-81
2022/08/30 12:02:50;;;;;;;;;;;;;;;;;;5041192;28;19916;-81
2022/08/30 12:05:15;;;;;;;;;;;;;;;;;;5041979;28;19908;-81
2022/08/30 12:07:40;;;;;;;;;;;;;;;;;;5045922;28;19909;-81
2022/08/30 12:10:06;;;;;;;;;;;;;;;;;;5036924;28;19968;-80
2022/08/30 12:12:31;;;;;;;;;;;;;;;;;;5047103;28;19909;-81
2022/08/30 12:14:56;;;;;;;;;;;;;;;;;;5039643;28;19905;-82
2022/08/30 12:20:05;;;;;;;;;;;;;;;;;;5037126;28;19924;-81
2022/08/30 12:22:36;;;;;;;;;;;;;;;;;;5040560;28;19905;-81
2022/08/30 12:25:01;;;;;;;;;;;;;;;;;;5044306;28;19923;-81
2022/08/30 12:27:26;;;;;;;;;;;;;;;;;;5041916;28;19909;-81
2022/08/30 12:29:52;;;;;;;;;;;;;;;;;;5043462;28;19940;-81
2022/08/30 12:32:21;;;;;;;;;;;;;;;;;;5040033;28;19913;-80
2022/08/30 12:34:46;;;;;;;;;;;;;;;;;;5051508;28;19948;-80
2022/08/30 12:37:11;;;;;;;;;;;;;;;;;;5051152;28;19997;-81
2022/08/30 12:39:37;;;;;;;;;;;;;;;;;;5049307;28;19964;-81
2022/08/30 12:42:02;;;;;;;;;;;;;;;;;;5046027;28;19940;-81
2022/08/30 12:44:27;;;;;;;;;;;;;;;;;;5048368;28;19909;-81
2022/08/30 12:46:52;;;;;;;;;;;;;;;;;;5043495;28;19916;-81
2022/08/30 12:49:17;;;;;;;;;;;;;;;;;;5037824;28;19909;-81
2022/08/30 12:51:42;;;;;;;;;;;;;;;;;;5050908;28;19912;-81
2022/08/30 12:54:08;;;;;;;;;;;;;;;;;;5043509;28;20372;-81
2022/08/30 12:56:33;;;;;;;;;;;;;;;;;;5043802;28;19971;-82
2022/08/30 12:58:58;;;;;;;;;;;;;;;;;;5034957;28;19909;-81
2022/08/30 13:01:24;;;;;;;;;;;;;;;;;;5037684;28;19909;-82
2022/08/30 13:03:49;;;;;;;;;;;;;;;;;;5045364;28;19947;-82
2022/08/30 13:06:15;;;;;;;;;;;;;;;;;;5049506;28;19908;-81
2022/08/30 13:08:40;;;;;;;;;;;;;;;;;;5048485;28;19917;-82
2022/08/30 13:11:05;;;;;;;;;;;;;;;;;;5046773;28;20043;-82
2022/08/30 13:13:30;;;;;;;;;;;;;;;;;;5041588;28;19944;-82
2022/08/30 13:15:55;;;;;;;;;;;;;;;;;;5044459;28;19908;-82
2022/08/30 13:18:21;;;;;;;;;;;;;;;;;;5041448;28;19905;-83
2022/08/30 13:20:46;;;;;;;;;;;;;;;;;;5043169;28;19952;-83
2022/08/30 13:23:12;;;;;;;;;;;;;;;;;;5041430;28;20304;-82
2022/08/30 13:25:37;;;;;;;;;;;;;;;;;;5047315;28;19907;-83
2022/08/30 13:28:02;;;;;;;;;;;;;;;;;;5038936;28;19905;-83
2022/08/30 13:30:27;;;;;;;;;;;;;;;;;;5041265;28;19935;-83
2022/08/30 13:32:52;;;;;;;;;;;;;;;;;;5038617;28;19959;-83
2022/08/30 13:35:17;;;;;;;;;;;;;;;;;;5041166;28;19912;-85
2022/08/30 13:37:43;;;;;;;;;;;;;;;;;;5043427;28;19917;-84
2022/08/30 13:40:08;;;;;;;;;;;;;;;;;;5046390;28;19920;-83
2022/08/30 13:42:33;;;;;;;;;;;;;;;;;;5044147;28;19913;-83
2022/08/30 13:44:58;;;;;;;;;;;;;;;;;;5045048;28;19912;-83
2022/08/30 13:47:23;;;;;;;;;;;;;;;;;;5040925;28;19905;-85
2022/08/30 13:49:48;;;;;;;;;;;;;;;;;;5039096;28;19909;-84
2022/08/30 13:52:13;;;;;;;;;;;;;;;;;;5036565;28;19913;-83
2022/08/30 13:54:39;;;;;;;;;;;;;;;;;;5045593;28;19936;-83
2022/08/30 13:57:04;;;;;;;;;;;;;;;;;;5047926;28;20311;-83
2022/08/30 13:59:32;;;;;;;;;;;;;;;;;;5053231;28;20257;-83
2022/08/30 14:01:57;;;;;;;;;;;;;;;;;;5048049;28;19968;-84
2022/08/30 14:04:22;;;;;;;;;;;;;;;;;;5043693;28;19944;-84
2022/08/30 14:06:47;;;;;;;;;;;;;;;;;;5049300;28;20389;-83
2022/08/30 14:09:13;;;;;;;;;;;;;;;;;;5048721;28;20327;-84
2022/08/30 14:11:38;;;;;;;;;;;;;;;;;;5048089;28;19952;-83
2022/08/30 14:14:03;;;;;;;;;;;;;;;;;;5046871;28;19909;-85
2022/08/30 14:16:30;;;;;;;;;;;;;;;;;;5046838;28;19911;-84
2022/08/30 14:18:55;;;;;;;;;;;;;;;;;;5046443;28;19996;-85
2022/08/30 14:21:20;;;;;;;;;;;;;;;;;;5048524;28;19999;-84
2022/08/30 14:23:45;;;;;;;;;;;;;;;;;;5034815;28;20807;-84
2022/08/30 14:26:10;;;;;;;;;;;;;;;;;;5023753;28;19904;-82
2022/08/30 14:28:35;;;;;;;;;;;;;;;;;;5046973;28;19970;-84
2022/08/30 14:31:01;;;;;;;;;;;;;;;;;;5034065;28;19991;-84
2022/08/30 14:33:26;;;;;;;;;;;;;;;;;;5033459;28;19913;-84
2022/08/30 14:35:51;;;;;;;;;;;;;;;;;;5032637;28;20384;-83
2022/08/30 14:38:16;;;;;;;;;;;;;;;;;;5034857;28;20046;-82
2022/08/30 14:40:41;;;;;;;;;;;;;;;;;;5033624;28;19917;-83
2022/08/30 14:43:06;;;;;;;;;;;;;;;;;;5037790;28;19916;-84
2022/08/30 14:45:31;;;;;;;;;;;;;;;;;;5036609;28;19912;-84
2022/08/30 14:47:57;;;;;;;;;;;;;;;;;;5042487;28;20257;-80
2022/08/30 14:50:22;;;;;;;;;;;;;;;;;;5045884;28;20336;-83
2022/08/30 14:52:47;;;;;;;;;;;;;;;;;;5041012;28;19912;-84
2022/08/30 14:55:12;;;;;;;;;;;;;;;;;;5048452;28;19913;-83
2022/08/30 14:57:37;;;;;;;;;;;;;;;;;;5040875;28;19949;-84
2022/08/30 15:00:02;;;;;;;;;;;;;;;;;;5038414;28;19917;-81
2022/08/30 15:02:28;;;;;;;;;;;;;;;;;;5041587;28;19909;-83
2022/08/30 15:04:53;;;;;;;;;;;;;;;;;;5044039;28;20324;-85
2022/08/30 15:07:18;;;;;;;;;;;;;;;;;;5042295;28;19947;-85
2022/08/30 15:09:44;;;;;;;;;;;;;;;;;;5050088;28;20323;-84
2022/08/30 15:12:09;;;;;;;;;;;;;;;;;;5038562;28;19928;-83
2022/08/30 15:14:34;;;;;;;;;;;;;;;;;;5045870;28;19912;-83
2022/08/30 15:17:01;;;;;;;;;;;;;;;;;;5045917;28;19916;-84
2022/08/30 15:19:26;;;;;;;;;;;;;;;;;;5038384;28;19951;-83
2022/08/30 15:21:51;;;;;;;;;;;;;;;;;;5039189;28;20008;-84
2022/08/30 15:24:17;;;;;;;;;;;;;;;;;;5046828;28;19950;-82
2022/08/30 15:26:42;;;;;;;;;;;;;;;;;;5048928;28;20283;-86
2022/08/30 15:29:09;;;;;;;;;;;;;;;;;;5029962;28;19913;-84
2022/08/30 15:31:34;;;;;;;;;;;;;;;;;;5040969;28;19920;-85
2022/08/30 15:34:00;;;;;;;;;;;;;;;;;;5033835;28;19956;-80
2022/08/30 15:36:25;;;;;;;;;;;;;;;;;;5047090;28;19980;-80
2022/08/30 15:38:50;;;;;;;;;;;;;;;;;;5051057;28;19915;-81
2022/08/30 15:41:16;;;;;;;;;;;;;;;;;;5048497;28;20007;-80
2022/08/30 15:43:41;;;;;;;;;;;;;;;;;;5051527;28;20367;-81
2022/08/30 15:46:06;;;;;;;;;;;;;;;;;;5047229;28;19927;-80
2022/08/30 15:48:31;;;;;;;;;;;;;;;;;;5042582;28;19917;-82
2022/08/30 15:50:56;;;;;;;;;;;;;;;;;;5036169;28;19920;-80
2022/08/30 15:53:22;;;;;;;;;;;;;;;;;;5026614;28;20015;-81
2022/08/30 15:55:47;;;;;;;;;;;;;;;;;;5039728;28;19913;-80
2022/08/30 15:58:12;;;;;;;;;;;;;;;;;;5031835;28;19905;-80
2022/08/30 16:00:39;;;;;;;;;;;;;;;;;;5032635;28;19956;-81
2022/08/30 16:03:04;;;;;;;;;;;;;;;;;;5034678;28;19963;-80
2022/08/30 16:05:29;;;;;;;;;;;;;;;;;;5043129;28;19909;-81
2022/08/30 16:07:54;;;;;;;;;;;;;;;;;;5037890;28;20008;-80
2022/08/30 16:10:19;;;;;;;;;;;;;;;;;;5040586;28;19909;-80
2022/08/30 16:12:45;;;;;;;;;;;;;;;;;;5036771;28;19958;-81
2022/08/30 16:15:10;;;;;;;;;;;;;;;;;;5049794;28;20124;-81
2022/08/30 16:17:35;;;;;;;;;;;;;;;;;;5036446;28;19916;-81
2022/08/30 16:20:00;;;;;;;;;;;;;;;;;;5036397;28;20003;-81
2022/08/30 16:22:25;;;;;;;;;;;;;;;;;;5041851;28;19911;-81
2022/08/30 16:24:50;;;;;;;;;;;;;;;;;;5037347;28;19920;-85
2022/08/30 16:27:16;;;;;;;;;;;;;;;;;;5037202;28;19999;-81
2022/08/30 16:29:41;;;;;;;;;;;;;;;;;;5035968;28;19909;-82
2022/08/30 16:32:06;;;;;;;;;;;;;;;;;;5032363;28;20426;-83
2022/08/30 16:34:31;;;;;;;;;;;;;;;;;;5032051;28;19916;-79
2022/08/30 16:36:56;;;;;;;;;;;;;;;;;;5035720;28;19917;-82
2022/08/30 16:39:21;;;;;;;;;;;;;;;;;;5033775;28;20004;-80
2022/08/30 16:41:46;;;;;;;;;;;;;;;;;;5037944;28;19921;-79